Time;durP1;ratioP1;P1;durP2;ratioP2;P2;SDS_P1;SDS_P2;PMS_P1;PMS_P2;Temp;Humidity;BMP_temperature;BMP_pressure;BME280_temperature;BME280_humidity;BME280_pressure;Samples;Min_cycle;Max_cycle;Signal;HPM_P1;HPM_P2
2021/04/30 00:00:21;;;;;;;;;;;10.00;99.90;;;8.98;94.21;95102.69;10319177;28;2351;-82
2021/04/30 00:05:24;;;;;;;;;;;10.00;99.90;;;8.95;94.36;95106.72;10327716;28;2315;-83
2021/04/30 00:10:26;;;;;;;;;;;10.00;99.90;;;8.89;94.34;95111.31;10329554;28;2271;-81
2021/04/30 00:15:28;;;;;;;;;;;9.90;99.90;;;8.87;94.58;95093.94;10327115;28;2231;-82
2021/04/30 00:20:29;;;;;;;;;;;9.90;99.90;;;8.79;94.40;95102.56;10321695;28;2307;-83
2021/04/30 00:25:31;;;;;;;;;;;10.20;99.90;;;8.72;94.57;95099.41;10356414;28;2346;-81
2021/04/30 00:30:33;;;;;;;;;;;9.80;99.90;;;8.69;94.87;95102.63;10335516;28;2294;-81
2021/04/30 00:35:35;;;;;;;;;;;10.20;99.90;;;8.46;95.12;95094.19;10320991;28;2414;-81
2021/04/30 00:40:36;;;;;;;;;;;9.60;99.90;;;8.34;95.16;95101.72;10339279;28;2369;-81
2021/04/30 00:45:38;;;;;;;;;;;10.60;99.90;;;8.24;95.70;95088.38;10339552;28;2342;-83
2021/04/30 00:50:40;;;;;;;;;;;9.40;99.90;;;8.19;95.79;95091.06;10351743;28;2270;-82
2021/04/30 00:55:41;;;;;;;;;;;9.80;99.90;;;8.25;96.87;95087.28;10333370;28;2192;-81
2021/04/30 01:00:43;;;;;;;;;;;9.30;99.90;;;8.31;96.03;95094.22;10317878;28;2233;-82
2021/04/30 01:05:45;;;;;;;;;;;10.10;99.90;;;8.29;95.67;95099.06;10307560;28;3446;-81
2021/04/30 01:10:47;;;;;;;;;;;9.40;99.90;;;8.22;95.46;95101.25;10310434;28;2273;-83
2021/04/30 01:15:48;;;;;;;;;;;10.00;99.90;;;8.19;96.08;95104.47;10329747;28;2602;-81
2021/04/30 01:20:50;;;;;;;;;;;9.30;99.90;;;8.18;96.06;95109.00;10303642;28;2265;-82
2021/04/30 01:25:52;;;;;;;;;;;9.30;99.90;;;8.34;96.54;95117.78;10315925;28;2298;-82
2021/04/30 01:30:54;;;;;;;;;;;9.30;99.90;;;8.55;96.15;95129.22;10335035;28;1993;-82
2021/04/30 01:35:56;;;;;;;;;;;10.30;99.90;;;8.68;95.19;95122.47;10337645;28;2426;-82
2021/04/30 01:40:57;;;;;;;;;;;9.60;99.90;;;8.73;94.01;95125.13;10321011;28;2454;-82
2021/04/30 01:46:04;;;;;;;;;;;10.10;99.90;;;8.78;93.42;95122.38;10345877;28;2478;-83
2021/04/30 01:51:06;;;;;;;;;;;9.80;99.90;;;8.82;93.69;95118.06;10341598;28;2108;-81
2021/04/30 01:56:08;;;;;;;;;;;9.80;99.90;;;8.84;93.05;95121.28;10329787;28;2395;-82
2021/04/30 02:01:10;;;;;;;;;;;10.40;99.90;;;8.89;91.82;95116.69;10360530;28;2469;-82
2021/04/30 02:06:11;;;;;;;;;;;9.80;99.90;;;8.97;91.84;95114.47;10367334;28;2537;-82
2021/04/30 02:11:13;;;;;;;;;;;10.40;99.90;;;8.98;91.73;95121.47;10319083;28;2404;-82
2021/04/30 02:16:15;;;;;;;;;;;9.90;99.90;;;9.03;91.13;95116.84;10332730;28;2494;-81
2021/04/30 02:21:17;;;;;;;;;;;10.30;99.90;;;9.04;91.05;95120.34;10325064;28;2332;-81
2021/04/30 02:26:19;;;;;;;;;;;9.90;99.90;;;9.07;90.79;95120.59;10310959;28;2533;-81
2021/04/30 02:31:21;;;;;;;;;;;10.70;99.90;;;9.03;91.14;95108.81;10314810;28;2443;-82
2021/04/30 02:36:23;;;;;;;;;;;10.00;99.90;;;9.08;90.32;95111.44;10307656;28;2519;-81
2021/04/30 02:41:24;;;;;;;;;;;10.00;99.90;;;9.04;90.76;95123.03;10314347;28;2502;-83
2021/04/30 02:46:26;;;;;;;;;;;10.00;99.90;;;9.09;90.66;95115.72;10335290;28;2530;-81
2021/04/30 02:51:28;;;;;;;;;;;10.00;99.90;;;9.11;90.93;95121.63;10341638;28;2489;-82
2021/04/30 02:56:30;;;;;;;;;;;10.00;99.90;;;9.14;90.95;95125.63;10325680;28;2450;-82
2021/04/30 03:01:32;;;;;;;;;;;10.10;99.90;;;9.07;90.69;95119.78;10338784;28;2498;-83
2021/04/30 03:06:36;;;;;;;;;;;10.10;99.90;;;9.11;90.55;95124.31;10328246;28;2914;-80
2021/04/30 03:11:37;;;;;;;;;;;10.00;99.90;;;9.05;90.28;95122.75;10328296;28;2698;-84
2021/04/30 03:16:39;;;;;;;;;;;10.00;99.90;;;9.04;90.74;95121.16;10343694;28;2694;-82
2021/04/30 03:21:41;;;;;;;;;;;10.00;99.90;;;9.03;90.88;95113.38;10344905;28;2068;-81
2021/04/30 03:26:43;;;;;;;;;;;9.90;99.90;;;8.99;91.13;95113.13;10327072;28;2289;-81
2021/04/30 03:31:45;;;;;;;;;;;10.40;99.90;;;8.99;91.20;95102.41;10341387;28;2286;-82
2021/04/30 03:36:47;;;;;;;;;;;10.00;99.90;;;9.02;91.54;95099.16;10340414;28;2377;-83
2021/04/30 03:41:48;;;;;;;;;;;10.00;99.90;;;9.02;91.23;95111.78;10340339;28;2247;-81
2021/04/30 03:46:50;;;;;;;;;;;10.00;99.90;;;8.92;90.75;95101.94;10337835;28;2357;-81
2021/04/30 03:51:52;;;;;;;;;;;9.90;99.90;;;8.80;90.82;95117.56;10314357;28;2331;-81
2021/04/30 03:56:54;;;;;;;;;;;10.60;99.90;;;8.71;91.23;95117.34;10342562;28;2350;-81
2021/04/30 04:01:56;;;;;;;;;;;9.80;99.90;;;8.79;90.65;95124.00;10340512;28;2242;-81
2021/04/30 04:06:58;;;;;;;;;;;9.80;99.90;;;8.72;90.44;95118.16;10325700;28;2338;-83
2021/04/30 04:11:59;;;;;;;;;;;10.70;99.90;;;8.66;91.45;95104.00;10338007;28;2559;-85
2021/04/30 04:17:21;;;;;;;;;;;9.70;99.90;;;8.42;90.16;95095.00;10347763;28;2349;-82
2021/04/30 04:22:28;;;;;;;;;;;9.60;99.90;;;8.36;90.74;95088.88;10339099;28;2315;-82
2021/04/30 04:27:30;;;;;;;;;;;11.00;99.90;;;8.29;91.45;95085.69;10343944;28;2266;-80
2021/04/30 04:32:32;;;;;;;;;;;9.30;99.90;;;8.19;91.46;95099.09;10326752;28;2409;-82
2021/04/30 04:37:34;;;;;;;;;;;10.00;99.90;;;8.33;92.75;95117.00;10313687;28;2667;-82
2021/04/30 04:42:36;;;;;;;;;;;9.30;99.90;;;8.49;91.43;95131.13;10335333;28;2318;-82
2021/04/30 04:47:37;;;;;;;;;;;9.40;99.90;;;8.27;90.78;95136.84;10340151;28;2211;-82
2021/04/30 04:52:39;;;;;;;;;;;10.30;99.90;;;8.41;91.33;95139.75;10327522;28;2262;-80
2021/04/30 04:57:42;;;;;;;;;;;9.40;99.90;;;8.17;91.76;95138.75;10332727;28;2370;-83
2021/04/30 05:02:44;;;;;;;;;;;9.90;99.90;;;8.35;89.75;95156.88;10348266;28;1886;-80
2021/04/30 05:07:46;;;;;;;;;;;9.70;99.90;;;8.65;88.90;95145.22;10343020;28;2444;-83
2021/04/30 05:12:48;;;;;;;;;;;10.20;99.90;;;8.86;86.67;95156.66;10348336;28;2354;-85
2021/04/30 05:17:49;;;;;;;;;;;9.70;99.90;;;8.93;87.62;95154.47;10358638;28;2377;-80
2021/04/30 05:22:51;;;;;;;;;;;10.40;99.90;;;8.76;88.12;95156.69;10357193;28;2240;-81
2021/04/30 05:27:53;;;;;;;;;;;9.80;99.90;;;8.51;88.03;95177.19;10351978;28;1997;-81
2021/04/30 05:32:55;;;;;;;;;;;9.90;99.90;;;8.22;86.87;95168.97;10341290;28;2269;-83
2021/04/30 05:37:57;;;;;;;;;;;9.30;99.90;;;8.04;86.56;95177.59;10339782;28;2447;-81
2021/04/30 05:42:59;;;;;;;;;;;9.10;99.90;;;7.94;86.53;95167.69;10326785;28;2412;-82
2021/04/30 05:48:01;;;;;;;;;;;10.00;99.90;;;8.22;85.38;95158.28;10342999;28;2247;-81
2021/04/30 05:53:03;;;;;;;;;;;9.10;99.90;;;8.18;85.91;95161.75;10338899;28;1953;-83
2021/04/30 05:58:04;;;;;;;;;;;9.90;99.90;;;8.68;84.93;95173.38;10341017;28;2002;-78
2021/04/30 06:03:06;;;;;;;;;;;10.10;99.90;;;9.48;80.95;95179.28;10316135;28;1922;-82
2021/04/30 06:08:08;;;;;;;;;;;10.00;99.90;;;9.96;78.99;95182.06;10340596;28;2342;-81
2021/04/30 06:13:10;;;;;;;;;;;10.50;99.90;;;9.73;79.37;95195.16;10311137;28;2490;-82
2021/04/30 06:18:11;;;;;;;;;;;10.70;99.90;;;9.43;78.90;95203.47;10321109;28;2184;-82
2021/04/30 06:23:14;;;;;;;;;;;10.60;99.90;;;9.63;78.54;95203.28;10318577;28;2306;-83
2021/04/30 06:28:16;;;;;;;;;;;10.50;99.90;;;9.41;79.85;95206.41;10320919;28;2220;-83
2021/04/30 06:33:18;;;;;;;;;;;10.40;99.90;;;9.53;77.66;95198.00;10320391;28;2242;-84
2021/04/30 06:38:20;;;;;;;;;;;10.40;99.90;;;10.02;76.64;95195.16;10320573;28;2306;-82
2021/04/30 06:43:22;;;;;;;;;;;10.60;99.90;;;9.92;76.37;95189.88;10329126;28;2339;-84
2021/04/30 06:48:24;;;;;;;;;;;10.70;99.90;;;10.58;73.79;95174.97;10353427;28;2622;-85
2021/04/30 06:53:26;;;;;;;;;;;11.10;99.90;;;10.35;73.96;95173.09;10329373;28;1920;-82
2021/04/30 06:58:28;;;;;;;;;;;11.40;99.90;;;10.23;74.15;95174.28;10328626;28;2306;-82
2021/04/30 07:03:30;;;;;;;;;;;11.20;99.90;;;10.39;72.72;95182.19;10348088;28;2381;-84
2021/04/30 07:08:33;;;;;;;;;;;11.40;99.90;;;10.31;73.86;95177.41;10328761;28;2454;-84
2021/04/30 07:13:47;;;;;;;;;;;11.30;99.90;;;10.43;72.77;95173.25;10357692;23;2490;-85
2021/04/30 07:18:53;;;;;;;;;;;11.30;99.90;;;10.38;72.45;95181.38;10368599;28;2377;-83
2021/04/30 07:24:06;;;;;;;;;;;11.40;99.90;;;10.24;73.61;95165.16;10369618;28;2440;-83
2021/04/30 07:29:09;;;;;;;;;;;11.20;99.90;;;10.29;73.06;95162.38;10358309;28;2388;-84
2021/04/30 07:34:11;;;;;;;;;;;11.30;99.90;;;10.43;71.48;95142.88;10359429;28;2324;-83
2021/04/30 07:39:14;;;;;;;;;;;11.40;99.90;;;10.07;72.47;95137.13;10360267;28;2400;-83
2021/04/30 07:44:16;;;;;;;;;;;11.00;99.90;;;10.55;70.93;95133.31;10381912;28;2316;-84
2021/04/30 07:49:18;;;;;;;;;;;11.20;99.90;;;10.43;71.05;95140.19;10369758;28;2367;-83
2021/04/30 07:54:20;;;;;;;;;;;11.30;99.90;;;11.11;68.22;95139.81;10393432;28;2392;-84
2021/04/30 07:59:22;;;;;;;;;;;11.80;99.90;;;11.70;65.98;95135.63;10394044;28;2273;-84
2021/04/30 08:04:23;;;;;;;;;;;12.30;99.90;;;11.75;66.33;95124.78;10367493;28;2444;-81
2021/04/30 08:09:25;;;;;;;;;;;12.50;99.90;;;11.19;67.22;95120.31;10368196;28;2292;-82
2021/04/30 08:14:29;;;;;;;;;;;12.40;99.90;;;11.77;66.19;95113.69;10365145;28;2457;-82
2021/04/30 08:19:31;;;;;;;;;;;12.60;99.90;;;11.61;66.65;95110.50;10382497;28;2305;-82
2021/04/30 08:24:33;;;;;;;;;;;12.90;99.90;;;11.30;69.10;95110.19;10362421;28;2227;-82
2021/04/30 08:29:34;;;;;;;;;;;12.60;99.90;;;11.50;68.77;95115.25;10380774;28;2284;-82
2021/04/30 08:34:36;;;;;;;;;;;12.60;99.90;;;11.75;67.79;95097.03;10366277;28;1939;-84
2021/04/30 08:39:46;;;;;;;;;;;12.80;99.90;;;11.75;68.36;95083.59;10370221;28;2277;-84
2021/04/30 08:44:48;;;;;;;;;;;13.00;99.90;;;12.08;67.34;95081.63;10370212;28;2235;-83
2021/04/30 08:49:50;;;;;;;;;;;13.00;99.90;;;12.29;67.49;95068.56;10382209;28;2285;-83
2021/04/30 08:54:53;;;;;;;;;;;13.30;99.90;;;12.47;66.65;95072.22;10377694;28;2323;-83
2021/04/30 08:59:56;;;;;;;;;;;13.50;99.90;;;12.73;65.38;95059.81;10369982;28;2359;-84
2021/04/30 09:04:58;;;;;;;;;;;13.70;99.90;;;12.65;67.35;95053.22;10389936;28;2350;-82
2021/04/30 09:10:00;;;;;;;;;;;13.60;99.90;;;13.01;65.63;95049.69;10362869;28;2293;-80
2021/04/30 09:15:01;;;;;;;;;;;13.80;99.90;;;13.16;64.36;95045.81;10376115;28;2307;-84
2021/04/30 09:20:03;;;;;;;;;;;14.20;99.90;;;13.40;63.87;95024.75;10356331;28;2533;-82
2021/04/30 09:25:05;;;;;;;;;;;14.30;99.90;;;13.96;62.25;95025.94;10367316;28;2412;-83
2021/04/30 09:30:07;;;;;;;;;;;14.60;99.90;;;13.79;62.44;95020.47;10385189;28;2335;-82
2021/04/30 09:35:09;;;;;;;;;;;14.80;99.90;;;13.78;62.43;95018.88;10386563;28;2238;-83
2021/04/30 09:40:11;;;;;;;;;;;14.90;99.90;;;13.44;64.44;95009.53;10372284;28;2415;-82
2021/04/30 09:45:12;;;;;;;;;;;14.40;99.90;;;13.91;61.75;95007.16;10378040;28;2301;-80
2021/04/30 09:50:19;;;;;;;;;;;14.60;99.90;;;14.69;59.20;94995.72;10393710;28;2291;-83
2021/04/30 09:55:21;;;;;;;;;;;15.20;99.90;;;14.73;58.86;94996.69;10371786;28;2305;-83
2021/04/30 10:00:23;;;;;;;;;;;15.50;99.90;;;15.04;57.80;94991.91;10374612;28;2234;-81
2021/04/30 10:05:25;;;;;;;;;;;16.00;99.90;;;14.50;59.28;94986.00;10372458;28;2352;-82
2021/04/30 10:10:43;;;;;;;;;;;15.60;99.90;;;14.53;59.39;94977.28;10389910;28;2356;-79
2021/04/30 10:15:51;;;;;;;;;;;15.60;99.90;;;15.45;56.92;94974.28;10362997;28;2345;-84
2021/04/30 10:20:53;;;;;;;;;;;16.00;99.90;;;15.36;55.72;94977.00;10372848;28;2424;-83
2021/04/30 10:25:55;;;;;;;;;;;16.40;99.90;;;15.27;56.13;94975.44;10397974;28;2321;-84
2021/04/30 10:30:57;;;;;;;;;;;16.30;99.90;;;15.52;56.47;94961.03;10377343;28;2179;-84
2021/04/30 10:35:58;;;;;;;;;;;16.50;99.90;;;15.95;55.83;94968.19;10356648;28;2405;-84
2021/04/30 10:41:00;;;;;;;;;;;16.70;99.90;;;15.52;56.24;94954.81;10367973;28;2297;-83
2021/04/30 10:46:02;;;;;;;;;;;16.80;99.90;;;15.58;56.58;94940.75;10370033;28;2361;-84
2021/04/30 10:51:03;;;;;;;;;;;16.60;99.90;;;16.40;53.76;94935.84;10376247;28;2380;-82
2021/04/30 10:56:05;;;;;;;;;;;17.10;99.90;;;15.53;54.87;94940.97;10389225;28;2306;-83
2021/04/30 11:01:07;;;;;;;;;;;17.00;99.90;;;15.33;55.47;94945.19;10383078;28;2271;-84
2021/04/30 11:06:09;;;;;;;;;;;16.60;99.90;;;14.99;56.70;94942.53;10394469;28;2442;-81
2021/04/30 11:11:11;;;;;;;;;;;16.10;99.90;;;15.33;56.36;94928.13;10417882;28;2021;-84
2021/04/30 11:16:13;;;;;;;;;;;16.40;99.90;;;15.53;55.29;94932.06;10391909;28;3033;-82
2021/04/30 11:21:17;;;;;;;;;;;16.50;99.90;;;15.48;55.91;94922.19;10371506;28;3143;-81
2021/04/30 11:26:19;;;;;;;;;;;16.30;99.90;;;16.32;54.08;94914.22;10389691;28;2733;-84
2021/04/30 11:31:21;;;;;;;;;;;16.90;99.90;;;16.88;53.25;94895.75;10384288;28;2261;-83
2021/04/30 11:36:23;;;;;;;;;;;17.70;99.90;;;16.24;53.79;94901.53;10366699;28;2280;-84
2021/04/30 11:41:25;;;;;;;;;;;17.60;99.90;;;15.81;55.31;94891.78;10392285;28;2276;-84
2021/04/30 11:46:27;;;;;;;;;;;17.10;99.90;;;15.68;53.92;94882.75;10383408;28;2080;-83
2021/04/30 11:51:28;;;;;;;;;;;17.00;99.90;;;15.55;55.59;94860.16;10383913;28;2312;-83
2021/04/30 11:56:30;;;;;;;;;;;16.70;99.90;;;15.62;55.74;94846.94;10400131;28;2289;-85
2021/04/30 12:01:32;;;;;;;;;;;16.70;99.90;;;15.79;54.56;94850.66;10373156;28;2274;-85
2021/04/30 12:06:34;;;;;;;;;;;16.80;99.90;;;16.22;53.58;94836.78;10380551;28;2400;-80
2021/04/30 12:11:36;;;;;;;;;;;17.00;99.90;;;16.32;53.48;94820.09;10401600;28;2508;-86
2021/04/30 12:16:38;;;;;;;;;;;17.40;99.90;;;17.06;51.75;94815.72;10396913;28;2615;-82
2021/04/30 12:21:40;;;;;;;;;;;17.80;99.90;;;16.95;51.41;94814.56;10404626;28;2413;-89
2021/04/30 12:26:44;;;;;;;;;;;18.10;99.90;;;16.83;51.67;94803.69;10391148;28;1755;-88
2021/04/30 12:31:47;;;;;;;;;;;17.90;99.90;;;17.21;50.31;94787.88;10425186;28;2286;-85
2021/04/30 12:36:55;;;;;;;;;;;18.10;99.90;;;16.91;52.11;94795.41;10379192;28;2391;-86
2021/04/30 12:41:57;;;;;;;;;;;18.10;99.90;;;17.14;51.71;94778.72;10396834;28;2546;-89
2021/04/30 12:46:59;;;;;;;;;;;18.10;99.90;;;17.69;49.72;94769.97;10390876;28;2265;-88
2021/04/30 12:52:01;;;;;;;;;;;18.50;99.90;;;17.36;51.20;94769.31;10349963;28;2244;-88
2021/04/30 12:57:04;;;;;;;;;;;18.70;99.90;;;17.39;50.33;94757.78;10382074;28;2371;-86
2021/04/30 13:02:06;;;;;;;;;;;18.60;99.20;;;17.47;51.12;94751.41;10366722;28;2238;-87
2021/04/30 13:07:09;;;;;;;;;;;18.30;99.90;;;17.52;49.11;94740.31;10366328;28;2402;-84
2021/04/30 13:12:12;;;;;;;;;;;18.60;97.50;;;17.59;49.51;94721.50;10368891;28;2285;-86
2021/04/30 13:17:15;;;;;;;;;;;18.60;97.80;;;17.33;51.53;94721.09;10412669;28;2205;-86
2021/04/30 13:22:17;;;;;;;;;;;18.40;99.10;;;17.63;50.42;94724.34;10382727;28;2353;-86
2021/04/30 13:27:19;;;;;;;;;;;18.60;98.40;;;17.73;50.65;94713.78;10383473;28;2375;-86
2021/04/30 13:32:41;;;;;;;;;;;18.70;98.80;;;17.94;48.57;94707.38;10368311;28;2568;-85
2021/04/30 13:37:52;;;;;;;;;;;18.90;96.70;;;18.25;48.10;94706.66;10401795;28;2285;-84
2021/04/30 13:43:04;;;;;;;;;;;19.20;96.00;;;18.50;47.86;94697.22;10384821;28;2558;-87
2021/04/30 13:48:07;;;;;;;;;;;19.40;95.20;;;18.09;48.41;94690.31;10376621;28;2234;-86
2021/04/30 13:53:14;;;;;;;;;;;19.30;94.00;;;18.09;48.57;94698.50;10368784;28;2241;-84
2021/04/30 13:58:24;;;;;;;;;;;19.10;94.80;;;18.53;48.19;94688.38;10379428;28;2396;-85
2021/04/30 14:03:26;;;;;;;;;;;19.40;94.60;;;18.00;49.05;94670.63;10371830;28;2293;-85
2021/04/30 14:08:31;;;;;;;;;;;19.20;93.90;;;18.27;48.95;94664.41;10391496;28;2209;-85
2021/04/30 14:13:37;;;;;;;;;;;19.20;94.50;;;18.28;48.13;94665.19;10370917;28;2025;-86
2021/04/30 14:18:45;;;;;;;;;;;19.30;93.30;;;18.30;48.49;94652.81;10413505;28;2153;-86
2021/04/30 14:24:00;;;;;;;;;;;19.40;93.40;;;18.33;48.35;94656.78;10392905;28;2340;-87
2021/04/30 14:29:04;;;;;;;;;;;19.40;93.00;;;18.26;48.53;94659.31;10387312;28;2299;-86
2021/04/30 14:34:26;;;;;;;;;;;19.40;92.50;;;18.26;48.49;94649.22;10384051;28;2240;-84
2021/04/30 14:39:51;;;;;;;;;;;19.30;92.50;;;18.61;47.25;94646.59;10372610;28;2277;-86
2021/04/30 14:44:53;;;;;;;;;;;19.30;92.10;;;18.66;46.87;94650.19;10374409;28;2434;-85
2021/04/30 14:49:56;;;;;;;;;;;19.50;91.30;;;18.54;46.60;94649.13;10367173;28;2360;-87
2021/04/30 14:54:58;;;;;;;;;;;19.60;90.30;;;18.28;47.25;94657.03;10392816;28;2410;-86
2021/04/30 15:00:00;;;;;;;;;;;19.30;90.30;;;18.17;48.36;94654.03;10367876;28;2312;-87
2021/04/30 15:05:05;;;;;;;;;;;19.20;91.50;;;18.14;49.16;94649.28;10366409;28;2264;-84
2021/04/30 15:10:07;;;;;;;;;;;19.10;92.20;;;17.97;49.06;94630.56;10391804;28;2328;-85
2021/04/30 15:15:09;;;;;;;;;;;19.10;92.10;;;17.73;49.82;94647.78;10356906;28;2344;-86
2021/04/30 15:20:11;;;;;;;;;;;18.90;92.20;;;17.34;50.58;94657.50;10375252;28;2356;-83
2021/04/30 15:25:13;;;;;;;;;;;18.50;92.70;;;17.23;51.08;94657.16;10376332;28;2399;-84
2021/04/30 15:30:14;;;;;;;;;;;18.30;93.40;;;16.94;50.44;94667.19;10385880;28;3391;-87
2021/04/30 15:35:16;;;;;;;;;;;18.10;92.50;;;16.79;51.79;94648.84;10371031;28;3453;-85
2021/04/30 15:40:18;;;;;;;;;;;17.80;94.20;;;16.21;56.73;94646.19;10371531;28;2296;-87
2021/04/30 15:45:20;;;;;;;;;;;17.50;97.70;;;15.54;59.40;94655.44;10389072;28;3469;-86
2021/04/30 15:50:22;;;;;;;;;;;16.90;99.90;;;14.96;62.14;94675.31;10373418;28;1592;-84
2021/04/30 15:55:26;;;;;;;;;;;16.30;99.90;;;14.49;67.31;94681.56;10397501;28;2299;-86
2021/04/30 16:00:27;;;;;;;;;;;15.80;99.90;;;14.17;69.82;94690.22;10381463;28;3297;-85
2021/04/30 16:05:29;;;;;;;;;;;15.40;99.90;;;13.77;72.77;94702.06;10388460;28;2499;-84
2021/04/30 16:10:32;;;;;;;;;;;15.00;99.90;;;13.50;73.43;94722.09;10378096;28;1623;-82
2021/04/30 16:15:34;;;;;;;;;;;14.70;99.90;;;13.28;77.53;94741.13;10398883;28;1159;-83
2021/04/30 16:20:36;;;;;;;;;;;14.40;99.90;;;13.01;78.25;94773.75;10409043;28;1899;-85
2021/04/30 16:25:37;;;;;;;;;;;14.10;99.90;;;12.71;84.87;94830.88;10400962;28;2095;-83
2021/04/30 16:30:41;;;;;;;;;;;13.80;99.90;;;11.55;82.79;94845.22;10376073;28;2471;-86
2021/04/30 16:35:43;;;;;;;;;;;13.00;99.90;;;10.39;83.55;94859.78;10399960;28;1636;-82
2021/04/30 16:40:49;;;;;;;;;;;11.90;99.90;;;9.73;89.56;94854.31;10394598;28;1981;-83
2021/04/30 16:46:10;;;;;;;;;;;11.00;99.90;;;9.45;92.06;94884.75;10395177;28;1390;-87
2021/04/30 16:51:27;;;;;;;;;;;10.60;99.90;;;9.19;92.21;94919.91;10389693;28;1676;-86
2021/04/30 16:56:29;;;;;;;;;;;10.30;99.90;;;8.80;91.87;94927.28;10363538;28;1517;-86
2021/04/30 17:01:34;;;;;;;;;;;9.90;99.90;;;8.43;89.93;94942.06;10378556;28;1926;-84
2021/04/30 17:06:36;;;;;;;;;;;10.70;99.90;;;7.99;88.53;94934.06;10377655;28;1868;-84
2021/04/30 17:11:38;;;;;;;;;;;9.10;99.90;;;7.77;90.10;94897.00;10394508;28;1558;-85
2021/04/30 17:16:40;;;;;;;;;;;8.80;99.90;;;7.81;92.38;94947.00;10399198;28;1592;-85
2021/04/30 17:21:43;;;;;;;;;;;10.10;99.90;;;7.78;90.25;94922.69;10387271;28;2834;-83
2021/04/30 17:26:45;;;;;;;;;;;8.70;99.90;;;7.69;87.74;94941.16;10393013;28;1681;-84
2021/04/30 17:31:47;;;;;;;;;;;10.00;99.90;;;7.77;84.91;94954.00;10396864;28;2700;-84
2021/04/30 17:36:48;;;;;;;;;;;9.00;99.90;;;7.67;85.58;94958.56;10375890;28;1223;-86
2021/04/30 17:41:51;;;;;;;;;;;8.70;99.90;;;7.67;82.90;94980.78;10403425;28;1914;-86
2021/04/30 17:46:53;;;;;;;;;;;8.60;99.90;;;7.62;84.31;94991.50;10370707;28;2399;-86
2021/04/30 17:51:55;;;;;;;;;;;10.10;99.90;;;7.69;83.26;94999.22;10378321;28;2376;-85
2021/04/30 17:56:58;;;;;;;;;;;9.30;99.90;;;7.71;81.14;95002.44;10401843;28;1907;-85
2021/04/30 18:02:09;;;;;;;;;;;10.60;99.90;;;7.72;82.33;95009.38;10368057;28;2005;-83
2021/04/30 18:07:22;;;;;;;;;;;8.70;99.90;;;7.81;83.11;95031.81;10372368;28;1479;-84
2021/04/30 18:12:26;;;;;;;;;;;9.80;99.90;;;7.86;85.65;95048.66;10370924;28;1549;-85
2021/04/30 18:17:31;;;;;;;;;;;10.20;99.90;;;7.97;84.98;95060.13;10388986;28;1218;-85
2021/04/30 18:22:52;;;;;;;;;;;9.00;99.90;;;8.05;85.88;95059.53;10415067;28;1999;-84
2021/04/30 18:28:10;;;;;;;;;;;10.30;99.90;;;8.08;85.07;95072.41;10401910;28;1185;-85
2021/04/30 18:33:26;;;;;;;;;;;9.20;99.90;;;7.96;83.45;95077.25;10381834;28;1616;-84
2021/04/30 18:38:49;;;;;;;;;;;9.90;99.90;;;7.85;82.20;95107.81;10385179;28;1297;-88
2021/04/30 18:43:56;;;;;;;;;;;9.70;99.90;;;7.75;84.38;95126.53;10376848;28;1966;-84
2021/04/30 18:49:05;;;;;;;;;;;8.80;99.90;;;7.81;85.32;95142.31;10381858;28;1830;-85
2021/04/30 18:54:17;;;;;;;;;;;10.30;99.90;;;7.73;86.73;95145.56;10382237;28;2819;-84
2021/04/30 18:59:25;;;;;;;;;;;9.10;99.90;;;7.67;87.15;95161.88;10417341;28;1718;-86
2021/04/30 19:09:50;;;;;;;;;;;9.90;99.90;;;7.52;87.53;95190.25;10368487;28;2001;-84
2021/04/30 19:15:04;;;;;;;;;;;8.50;99.90;;;7.42;87.81;95190.25;10365156;28;1593;-85
2021/04/30 19:20:16;;;;;;;;;;;8.50;99.90;;;7.30;88.29;95179.00;10382627;28;2268;-84
2021/04/30 19:25:49;;;;;;;;;;;8.40;99.90;;;7.11;88.33;95191.28;10368830;28;2389;-85
2021/04/30 19:31:02;;;;;;;;;;;9.20;99.90;;;7.16;88.66;95204.66;10399266;28;2674;-84
2021/04/30 19:36:24;;;;;;;;;;;;;;;;;;;;;
2021/04/30 19:54:30;;;;;;;;;;;10.10;99.90;;;6.90;90.49;95244.69;10338070;23;2631;-83
2021/04/30 19:59:58;;;;;;;;;;;;;;;;;;;;;
2021/04/30 20:05:32;;;;;;;;;;;8.80;99.90;;;6.71;92.44;95246.25;10275332;28;2451;-85
2021/04/30 20:10:48;;;;;;;;;;;8.20;99.90;;;6.67;94.35;95261.19;10251905;28;2245;-85
2021/04/30 20:16:06;;;;;;;;;;;9.50;99.90;;;6.65;94.47;95258.78;10277083;28;2407;-85
2021/04/30 20:21:08;;;;;;;;;;;8.50;99.90;;;6.59;94.66;95259.00;10264136;28;2408;-85
2021/04/30 20:26:10;;;;;;;;;;;8.40;99.90;;;6.47;94.80;95268.03;10262487;28;2196;-87
2021/04/30 20:31:13;;;;;;;;;;;8.50;99.90;;;6.35;95.56;95264.75;10312324;28;2735;-84
2021/04/30 20:36:15;;;;;;;;;;;7.40;99.90;;;6.41;96.86;95281.63;10298746;28;1630;-84
2021/04/30 20:41:17;;;;;;;;;;;7.40;99.90;;;6.29;96.90;95292.50;10307729;28;2060;-85
2021/04/30 20:46:21;;;;;;;;;;;7.30;99.90;;;6.42;97.35;95305.38;10328911;28;1245;-84
2021/04/30 20:51:23;;;;;;;;;;;7.30;99.90;;;6.60;98.46;95303.34;10318452;28;1629;-86
2021/04/30 20:56:25;;;;;;;;;;;7.40;99.90;;;6.58;98.33;95322.31;10308979;28;1155;-85
2021/04/30 21:01:27;;;;;;;;;;;7.50;99.90;;;6.68;98.53;95324.22;10305605;28;1922;-85
2021/04/30 21:06:29;;;;;;;;;;;8.80;99.90;;;6.70;97.84;95324.78;10297174;28;1484;-87
2021/04/30 21:11:44;;;;;;;;;;;7.60;99.90;;;6.58;96.45;95327.66;10288908;28;1587;-88
2021/04/30 21:16:47;;;;;;;;;;;7.60;99.90;;;6.62;97.12;95314.59;10324674;28;1682;-87
2021/04/30 21:21:50;;;;;;;;;;;8.50;99.90;;;6.61;97.13;95313.75;10304649;28;1906;-86
2021/04/30 21:26:58;;;;;;;;;;;8.50;99.90;;;6.60;97.26;95320.16;10291708;28;1692;-86
2021/04/30 21:32:06;;;;;;;;;;;7.70;99.90;;;6.59;96.47;95328.44;10310737;28;2730;-86
2021/04/30 21:37:08;;;;;;;;;;;7.80;99.90;;;6.49;95.98;95340.69;10314858;28;1433;-87
2021/04/30 21:42:11;;;;;;;;;;;7.50;99.90;;;6.45;95.77;95341.44;10338391;28;1891;-86
2021/04/30 21:47:13;;;;;;;;;;;8.10;99.90;;;6.43;96.08;95325.69;10324448;28;1222;-86
2021/04/30 21:52:16;;;;;;;;;;;8.20;99.90;;;6.40;95.71;95320.06;10324800;28;2700;-87
2021/04/30 21:57:18;;;;;;;;;;;7.40;99.90;;;6.50;96.38;95342.28;10306582;28;1939;-86
2021/04/30 22:02:20;;;;;;;;;;;7.50;99.90;;;6.59;96.01;95341.78;10331878;28;2387;-85
2021/04/30 22:07:22;;;;;;;;;;;7.50;99.90;;;6.55;95.01;95348.72;10307146;28;2434;-86
2021/04/30 22:12:24;;;;;;;;;;;7.50;99.90;;;6.54;95.48;95347.91;10330594;28;2235;-86
2021/04/30 22:17:45;;;;;;;;;;;7.50;99.90;;;6.55;95.57;95349.50;10340078;28;1888;-87
2021/04/30 22:23:00;;;;;;;;;;;7.50;99.90;;;6.59;95.76;95352.47;10326560;28;2138;-85
2021/04/30 22:28:02;;;;;;;;;;;7.50;99.90;;;6.74;96.29;95361.41;10343908;28;2235;-84
2021/04/30 22:33:04;;;;;;;;;;;7.60;99.90;;;6.83;95.85;95353.69;10339077;28;2701;-88
2021/04/30 22:38:06;;;;;;;;;;;7.70;99.90;;;6.84;95.76;95354.47;10324434;28;2495;-85
2021/04/30 22:43:07;;;;;;;;;;;8.60;99.90;;;6.89;95.07;95355.31;10337215;28;2318;-86
2021/04/30 22:48:10;;;;;;;;;;;8.50;99.90;;;6.96;95.23;95344.38;10320304;28;2094;-86
2021/04/30 22:53:12;;;;;;;;;;;7.90;99.90;;;6.93;94.29;95355.59;10317267;28;2287;-84
2021/04/30 22:58:16;;;;;;;;;;;9.10;99.90;;;6.83;93.64;95348.34;10300696;28;2335;-85
2021/04/30 23:03:18;;;;;;;;;;;8.60;99.90;;;6.75;94.56;95348.84;10321560;28;2101;-86
2021/04/30 23:08:20;;;;;;;;;;;8.00;99.90;;;6.75;94.50;95324.81;10313530;28;2334;-84
2021/04/30 23:13:22;;;;;;;;;;;8.50;99.90;;;6.75;94.91;95332.81;10321106;28;2402;-86
2021/04/30 23:18:24;;;;;;;;;;;8.10;99.90;;;6.80;94.23;95324.00;10289818;28;2348;-88
2021/04/30 23:23:27;;;;;;;;;;;8.40;99.90;;;6.73;94.19;95327.72;10297490;28;2310;-84
2021/04/30 23:28:29;;;;;;;;;;;8.60;99.90;;;6.79;95.04;95317.84;10304944;28;2362;-86
2021/04/30 23:33:31;;;;;;;;;;;9.00;99.90;;;6.78;94.96;95313.59;10315368;28;2318;-87
2021/04/30 23:38:33;;;;;;;;;;;7.70;99.90;;;6.77;94.94;95298.63;10294181;28;2254;-88
2021/04/30 23:43:36;;;;;;;;;;;7.80;99.90;;;6.83;95.14;95308.25;10311307;28;2346;-85
2021/04/30 23:48:38;;;;;;;;;;;9.30;99.90;;;6.81;95.03;95301.56;10309345;28;2476;-87
2021/04/30 23:53:40;;;;;;;;;;;8.30;99.90;;;6.82;95.04;95311.22;10292445;28;1677;-85